Time;durP1;ratioP1;P1;durP2;ratioP2;P2;SDS_P1;SDS_P2;PMS_P1;PMS_P2;Temp;Humidity;BMP_temperature;BMP_pressure;BME280_temperature;BME280_humidity;BME280_pressure;Samples;Min_cycle;Max_cycle;Signal;HPM_P1;HPM_P2
2024/04/18 00:01:27;;;;;;;5.22;2.17;;;;;;;6.57;100.00;101347.47;5535913;25;19997;-69
2024/04/18 00:04:16;;;;;;;3.60;2.10;;;;;;;6.62;100.00;101346.78;5460732;25;20444;-70
2024/04/18 00:07:04;;;;;;;2.75;2.03;;;;;;;6.68;100.00;101355.84;5506593;25;20116;-69
2024/04/18 00:09:52;;;;;;;6.03;2.65;;;;;;;6.70;100.00;101354.56;5536851;25;20001;-70
2024/04/18 00:12:51;;;;;;;4.97;2.20;;;;;;;6.71;100.00;101353.53;5505765;25;20472;-70
2024/04/18 00:15:42;;;;;;;2.47;1.80;;;;;;;6.68;100.00;101351.25;5574215;25;20006;-70
2024/04/18 00:18:51;;;;;;;3.13;2.25;;;;;;;6.65;100.00;101359.03;5506207;26;20455;-70
2024/04/18 00:21:45;;;;;;;4.45;1.90;;;;;;;6.66;100.00;101358.78;5512561;25;19997;-70
2024/04/18 00:24:45;;;;;;;3.13;1.83;;;;;;;6.68;100.00;101356.69;5490360;25;20050;-70
2024/04/18 00:27:42;;;;;;;3.45;2.05;;;;;;;6.69;100.00;101366.47;5536655;25;20353;-70
2024/04/18 00:30:31;;;;;;;3.17;2.13;;;;;;;6.70;100.00;101367.28;5511175;25;20012;-71
2024/04/18 00:33:19;;;;;;;4.15;2.00;;;;;;;6.70;100.00;101378.94;5534219;25;20032;-71
2024/04/18 00:36:09;;;;;;;3.80;2.13;;;;;;;6.70;100.00;101376.25;5535161;25;20524;-71
2024/04/18 00:39:08;;;;;;;4.35;1.90;;;;;;;6.69;100.00;101376.47;5536473;25;20453;-70
2024/04/18 00:41:56;;;;;;;2.47;1.92;;;;;;;6.69;100.00;101377.31;5561194;25;20305;-71
2024/04/18 00:44:50;;;;;;;2.88;1.88;;;;;;;6.72;100.00;101379.56;5514939;25;20036;-71
2024/04/18 00:47:58;;;;;;;6.10;2.28;;;;;;;6.75;100.00;101379.09;5571457;25;20002;-70
2024/04/18 00:50:46;;;;;;;2.58;2.03;;;;;;;6.75;100.00;101378.25;5541256;25;20536;-70
2024/04/18 00:53:40;;;;;;;2.67;1.90;;;;;;;6.71;100.00;101383.31;5572274;25;20048;-70
2024/04/18 00:56:46;;;;;;;4.28;2.30;;;;;;;6.66;100.00;101383.16;5498146;26;20009;-70
2024/04/18 00:59:47;;;;;;;2.70;2.10;;;;;;;6.66;100.00;101382.34;5517973;26;20097;-70
2024/04/18 01:02:36;;;;;;;2.47;1.98;;;;;;;6.63;100.00;101389.03;5462384;25;20011;-71
2024/04/18 01:05:59;;;;;;;3.83;2.40;;;;;;;6.62;100.00;101381.97;5559522;25;20012;-71
2024/04/18 01:09:08;;;;;;;4.82;2.10;;;;;;;6.63;100.00;101385.50;5554910;25;20008;-71
2024/04/18 01:11:56;;;;;;;3.83;2.10;;;;;;;6.58;100.00;101388.91;5560765;25;20450;-70
2024/04/18 01:14:44;;;;;;;2.95;2.20;;;;;;;6.53;100.00;101391.47;5535624;25;20011;-71
2024/04/18 01:17:51;;;;;;;3.17;2.33;;;;;;;6.47;100.00;101390.50;5526514;25;19992;-70
2024/04/18 01:20:39;;;;;;;5.60;2.30;;;;;;;6.50;100.00;101408.16;5524706;25;20007;-71
2024/04/18 01:23:28;;;;;;;4.28;2.40;;;;;;;6.51;100.00;101405.22;5508022;25;19997;-70
2024/04/18 01:26:18;;;;;;;4.60;2.60;;;;;;;6.53;100.00;101403.09;5558906;25;19996;-69
2024/04/18 01:29:06;;;;;;;4.10;2.38;;;;;;;6.52;100.00;101406.88;5549812;25;20004;-70
2024/04/18 01:31:54;;;;;;;4.90;2.20;;;;;;;6.51;100.00;101410.63;5462256;25;20321;-70
2024/04/18 01:34:42;;;;;;;3.40;2.33;;;;;;;6.52;100.00;101408.78;5534282;25;19997;-68
2024/04/18 01:37:36;;;;;;;4.43;2.55;;;;;;;6.49;100.00;101414.63;5563086;25;20016;-69
2024/04/18 01:40:33;;;;;;;2.55;2.30;;;;;;;6.45;100.00;101418.84;5585285;25;19996;-69
2024/04/18 01:43:40;;;;;;;3.72;2.28;;;;;;;6.45;100.00;101427.78;5504541;26;20006;-70
2024/04/18 01:46:47;;;;;;;3.38;2.35;;;;;;;6.44;100.00;101431.53;5508109;26;20013;-69
2024/04/18 01:49:50;;;;;;;4.57;2.58;;;;;;;6.43;100.00;101434.47;5564374;25;20033;-70
2024/04/18 01:52:39;;;;;;;3.25;2.35;;;;;;;6.43;100.00;101431.78;5534123;25;20409;-70
2024/04/18 01:55:27;;;;;;;4.65;2.45;;;;;;;6.44;100.00;101436.13;5534669;25;20015;-70
2024/04/18 01:58:28;;;;;;;3.13;2.38;;;;;;;6.47;100.00;101432.97;5508704;25;20052;-70
2024/04/18 02:01:21;;;;;;;4.78;2.78;;;;;;;6.47;100.00;101441.94;5448919;26;19998;-70
2024/04/18 02:04:10;;;;;;;5.93;2.80;;;;;;;6.47;100.00;101443.78;5472821;26;19997;-71
2024/04/18 02:06:58;;;;;;;4.32;2.40;;;;;;;6.46;100.00;101442.97;5498563;26;20398;-71
2024/04/18 02:09:46;;;;;;;5.47;2.30;;;;;;;6.45;100.00;101443.22;5543752;25;20049;-70
2024/04/18 02:12:46;;;;;;;5.70;2.45;;;;;;;6.48;100.00;101449.00;5522156;25;20443;-70
2024/04/18 02:15:34;;;;;;;4.55;2.80;;;;;;;6.46;100.00;101459.22;5524295;26;20001;-70
2024/04/18 02:18:33;;;;;;;4.00;2.38;;;;;;;6.39;100.00;101453.84;5475046;26;20043;-70
2024/04/18 02:21:32;;;;;;;4.03;2.45;;;;;;;6.40;100.00;101452.81;5501890;26;20013;-70
2024/04/18 02:24:20;;;;;;;4.72;2.63;;;;;;;6.42;100.00;101449.06;5518520;26;20069;-70
2024/04/18 02:27:08;;;;;;;3.78;2.55;;;;;;;6.41;100.00;101467.19;5496155;26;20355;-71
2024/04/18 02:29:56;;;;;;;5.47;2.60;;;;;;;6.40;100.00;101463.66;5487622;26;20078;-70
2024/04/18 02:32:57;;;;;;;3.38;2.35;;;;;;;6.39;100.00;101467.38;5484179;26;20074;-72
2024/04/18 02:36:04;;;;;;;5.30;2.40;;;;;;;6.38;100.00;101460.34;5487065;26;20025;-70
2024/04/18 02:38:58;;;;;;;4.80;2.80;;;;;;;6.40;100.00;101473.66;5508415;26;20012;-69
2024/04/18 02:41:47;;;;;;;2.85;2.40;;;;;;;6.38;100.00;101476.56;5521802;26;20011;-69
2024/04/18 02:44:47;;;;;;;4.15;2.20;;;;;;;6.35;100.00;101481.59;5518753;25;19998;-69
2024/04/18 02:47:35;;;;;;;3.85;2.45;;;;;;;6.31;100.00;101481.22;5522323;26;19997;-70
2024/04/18 02:50:26;;;;;;;4.20;2.40;;;;;;;6.33;100.00;101479.13;5520004;26;20002;-70
2024/04/18 02:53:15;;;;;;;3.17;2.20;;;;;;;6.29;100.00;101488.75;5523104;26;20345;-71
2024/04/18 02:56:21;;;;;;;4.40;2.22;;;;;;;6.30;100.00;101490.41;5498760;26;20008;-70
2024/04/18 02:59:28;;;;;;;5.00;2.40;;;;;;;6.32;100.00;101496.41;5522972;26;20008;-71
2024/04/18 03:02:17;;;;;;;3.80;2.38;;;;;;;6.32;100.00;101493.69;5524581;26;20513;-70
2024/04/18 03:05:05;;;;;;;4.15;2.50;;;;;;;6.33;100.00;101500.78;5522125;25;20008;-71
2024/04/18 03:07:57;;;;;;;4.45;2.40;;;;;;;6.31;100.00;101497.47;5524271;26;20008;-72
2024/04/18 03:11:03;;;;;;;4.35;2.45;;;;;;;6.28;100.00;101514.16;5536328;25;20007;-71
2024/04/18 03:13:55;;;;;;;4.88;2.40;;;;;;;6.23;100.00;101516.69;5545686;25;20014;-70
2024/04/18 03:16:52;;;;;;;3.28;2.38;;;;;;;6.23;100.00;101514.00;5540279;25;20020;-71
2024/04/18 03:19:40;;;;;;;5.90;2.70;;;;;;;6.19;100.00;101524.41;5576526;25;20008;-71
2024/04/18 03:22:45;;;;;;;3.60;2.40;;;;;;;6.20;100.00;101527.94;5574573;25;20014;-71
2024/04/18 03:25:33;;;;;;;8.05;2.50;;;;;;;6.20;100.00;101517.13;5511747;25;20027;-70
2024/04/18 03:28:21;;;;;;;5.55;2.58;;;;;;;6.15;100.00;101527.78;5559163;25;20001;-70
2024/04/18 03:31:09;;;;;;;7.80;2.72;;;;;;;6.13;100.00;101528.03;5534137;25;20327;-71
2024/04/18 03:33:57;;;;;;;5.95;2.50;;;;;;;6.12;100.00;101522.81;5506268;25;19996;-71
2024/04/18 03:36:52;;;;;;;6.32;2.95;;;;;;;6.15;100.00;101533.19;5504733;25;20001;-69
2024/04/18 03:39:49;;;;;;;5.45;2.53;;;;;;;6.10;100.00;101541.97;5513987;25;20006;-69
2024/04/18 03:42:37;;;;;;;5.15;2.55;;;;;;;6.09;100.00;101542.22;5532855;25;20328;-68
2024/04/18 03:45:27;;;;;;;5.85;3.13;;;;;;;6.07;100.00;101534.31;5533103;25;20014;-70
2024/04/18 03:48:35;;;;;;;7.35;2.80;;;;;;;6.05;100.00;101532.88;5491739;25;20011;-72
2024/04/18 03:51:26;;;;;;;9.65;3.10;;;;;;;6.05;100.00;101538.28;5533993;25;20366;-69
2024/04/18 03:54:43;;;;;;;5.50;2.70;;;;;;;5.99;100.00;101542.72;5523182;25;20001;-70
2024/04/18 03:58:08;;;;;;;;;;;;;;;5.98;100.00;101547.28;5497358;25;20360;-71
2024/04/18 04:01:09;;;;;;;8.32;3.80;;;;;;;5.96;100.00;101546.69;5533848;25;20454;-70
2024/04/18 04:03:57;;;;;;;6.22;2.75;;;;;;;5.92;100.00;101560.81;5505904;25;19996;-69
2024/04/18 04:06:58;;;;;;;8.65;3.13;;;;;;;5.91;100.00;101562.69;5509274;25;20001;-69
2024/04/18 04:09:46;;;;;;;6.40;2.67;;;;;;;5.90;100.00;101558.34;5506643;25;20001;-69
2024/04/18 04:12:38;;;;;;;7.80;3.28;;;;;;;5.90;100.00;101565.63;5538023;25;20011;-69
2024/04/18 04:15:29;;;;;;;5.93;2.60;;;;;;;5.83;100.00;101560.25;5558332;25;20029;-69
2024/04/18 04:18:26;;;;;;;5.13;2.65;;;;;;;5.81;100.00;101567.75;5556744;25;20009;-70
2024/04/18 04:21:34;;;;;;;6.03;2.70;;;;;;;5.81;100.00;101585.84;5534667;25;20009;-70
2024/04/18 04:24:22;;;;;;;4.63;2.42;;;;;;;5.78;100.00;101583.59;5505126;25;20001;-70
2024/04/18 04:27:13;;;;;;;6.13;2.80;;;;;;;5.74;100.00;101596.72;5529642;25;20028;-70
2024/04/18 04:30:01;;;;;;;5.93;2.60;;;;;;;5.64;100.00;101593.66;5530507;25;20011;-70
2024/04/18 04:32:49;;;;;;;5.28;2.72;;;;;;;5.63;100.00;101590.13;5506573;25;19997;-70
2024/04/18 04:35:52;;;;;;;6.07;2.85;;;;;;;5.65;100.00;101598.84;5496719;26;20080;-70
2024/04/18 04:38:41;;;;;;;7.13;2.95;;;;;;;5.69;100.00;101607.34;5523563;26;20001;-70
2024/04/18 04:41:29;;;;;;;4.95;2.70;;;;;;;5.70;100.00;101609.00;5499131;26;20002;-70
2024/04/18 04:44:17;;;;;;;3.47;2.50;;;;;;;5.71;100.00;101610.66;5547744;25;20004;-70
2024/04/18 04:47:08;;;;;;;6.32;2.80;;;;;;;5.73;100.00;101614.81;5563910;25;20033;-70
2024/04/18 04:50:07;;;;;;;5.65;2.75;;;;;;;5.74;100.00;101623.75;5562682;25;20329;-70
2024/04/18 04:52:55;;;;;;;6.68;2.70;;;;;;;5.74;100.00;101631.84;5563911;25;20409;-70
2024/04/18 04:55:44;;;;;;;6.57;2.90;;;;;;;5.66;100.00;101635.66;5565504;25;20028;-70
2024/04/18 04:58:32;;;;;;;5.75;2.97;;;;;;;5.63;100.00;101630.69;5558830;25;20008;-71
2024/04/18 05:01:20;;;;;;;7.60;3.20;;;;;;;5.66;100.00;101641.06;5483666;25;20019;-70
2024/04/18 05:04:17;;;;;;;5.53;2.92;;;;;;;5.63;100.00;101637.94;5536437;25;20003;-70
2024/04/18 05:07:05;;;;;;;6.97;2.92;;;;;;;5.66;100.00;101642.94;5507607;25;20000;-70
2024/04/18 05:09:53;;;;;;;6.88;3.10;;;;;;;5.69;100.00;101645.19;5537165;25;20021;-71
2024/04/18 05:12:41;;;;;;;8.07;3.45;;;;;;;5.70;100.00;101652.25;5536037;25;20028;-70
2024/04/18 05:15:49;;;;;;;8.10;3.20;;;;;;;5.71;100.00;101654.75;5563385;25;20344;-70
2024/04/18 05:18:58;;;;;;;5.75;2.90;;;;;;;5.70;100.00;101663.91;5522895;25;20012;-70
2024/04/18 05:21:46;;;;;;;6.75;3.03;;;;;;;5.69;100.00;101662.25;5495500;25;20005;-70
2024/04/18 05:24:53;;;;;;;6.47;2.90;;;;;;;5.72;100.00;101674.50;5505957;25;20002;-70
2024/04/18 05:27:52;;;;;;;5.85;3.25;;;;;;;5.71;100.00;101667.44;5473873;26;20009;-70
2024/04/18 05:31:06;;;;;;;5.57;2.95;;;;;;;5.73;100.00;101678.88;5559194;25;20001;-71
2024/04/18 05:33:54;;;;;;;5.13;2.88;;;;;;;5.72;100.00;101672.66;5476265;26;20343;-69
2024/04/18 05:36:46;;;;;;;8.18;3.20;;;;;;;5.75;100.00;101679.50;5499395;25;19993;-69
2024/04/18 05:39:34;;;;;;;9.32;3.10;;;;;;;5.74;100.00;101680.53;5483212;25;20449;-70
2024/04/18 05:42:22;;;;;;;6.57;2.83;;;;;;;5.76;100.00;101689.25;5449428;26;20040;-69
2024/04/18 05:45:28;;;;;;;6.57;2.80;;;;;;;5.77;100.00;101696.31;5559068;25;20001;-70
2024/04/18 05:48:22;;;;;;;6.43;3.05;;;;;;;5.74;100.00;101694.03;5507992;25;20000;-70
2024/04/18 05:51:10;;;;;;;5.85;3.15;;;;;;;5.70;100.00;101696.38;5526018;26;20061;-69
2024/04/18 05:54:19;;;;;;;8.95;3.47;;;;;;;5.68;100.00;101703.03;5431501;26;20441;-69
2024/04/18 05:57:26;;;;;;;7.55;3.40;;;;;;;5.69;100.00;101699.28;5492401;25;20005;-69
2024/04/18 06:00:14;;;;;;;9.32;3.35;;;;;;;5.68;100.00;101708.44;5531801;25;20020;-70
2024/04/18 06:03:03;;;;;;;7.20;3.22;;;;;;;5.69;100.00;101720.91;5481988;25;20000;-70
2024/04/18 06:05:53;;;;;;;6.63;3.10;;;;;;;5.71;100.00;101716.13;5507091;25;20045;-70
2024/04/18 06:08:41;;;;;;;7.57;2.88;;;;;;;5.73;100.00;101719.44;5558801;25;20008;-70
2024/04/18 06:11:32;;;;;;;7.28;3.38;;;;;;;5.76;100.00;101727.13;5482436;25;20000;-70
2024/04/18 06:14:38;;;;;;;8.57;3.17;;;;;;;5.78;100.00;101724.22;4766512;25;10000632;-71
2024/04/18 06:17:27;;;;;;;9.40;3.42;;;;;;;5.81;100.00;101737.28;5515687;25;20000;-72
2024/04/18 06:20:15;;;;;;;6.30;2.90;;;;;;;5.86;100.00;101748.28;5529876;25;20001;-70
2024/04/18 06:23:10;;;;;;;9.80;3.10;;;;;;;5.87;100.00;101750.81;5540376;25;20001;-70
2024/04/18 06:25:59;;;;;;;10.83;3.00;;;;;;;5.92;100.00;101751.00;5532013;25;20409;-70
2024/04/18 06:28:47;;;;;;;8.57;2.90;;;;;;;5.96;100.00;101759.53;5524088;25;20657;-70
2024/04/18 06:31:35;;;;;;;8.20;3.30;;;;;;;5.95;100.00;101763.28;5505607;25;20009;-71
2024/04/18 06:34:23;;;;;;;9.93;3.70;;;;;;;5.97;100.00;101761.19;5503275;25;20008;-71
2024/04/18 06:37:11;;;;;;;7.68;3.50;;;;;;;5.97;100.00;101756.63;5479788;26;20001;-70
2024/04/18 06:40:00;;;;;;;6.25;2.80;;;;;;;5.98;100.00;101769.06;5544827;25;20013;-68
2024/04/18 06:42:49;;;;;;;7.18;3.20;;;;;;;5.98;100.00;101763.66;5525709;25;20020;-68
2024/04/18 06:45:38;;;;;;;9.13;3.20;;;;;;;6.01;100.00;101767.81;5555439;25;20447;-69
2024/04/18 06:48:26;;;;;;;7.78;3.05;;;;;;;6.04;100.00;101766.56;5523236;25;20024;-69
2024/04/18 06:51:15;;;;;;;9.00;3.15;;;;;;;6.10;100.00;101765.72;5491790;26;19994;-68
2024/04/18 06:54:03;;;;;;;8.93;2.97;;;;;;;6.13;100.00;101773.38;5526066;25;20016;-68
2024/04/18 06:56:51;;;;;;;7.70;2.63;;;;;;;6.16;100.00;101781.09;5527256;25;19996;-69
2024/04/18 06:59:39;;;;;;;11.02;2.85;;;;;;;6.16;100.00;101781.09;5513249;25;20005;-69
2024/04/18 07:02:27;;;;;;;8.98;2.80;;;;;;;6.20;100.00;101776.91;5529227;25;20120;-69
2024/04/18 07:05:34;;;;;;;8.63;3.10;;;;;;;6.24;100.00;101783.56;5511567;25;20409;-68
2024/04/18 07:08:40;;;;;;;8.23;2.85;;;;;;;6.27;100.00;101787.69;5531942;25;20689;-68
2024/04/18 07:11:49;;;;;;;8.52;2.67;;;;;;;6.30;100.00;101790.81;5529387;25;19997;-68
2024/04/18 07:14:37;;;;;;;10.27;2.72;;;;;;;6.34;100.00;101789.31;5496994;25;20015;-68
2024/04/18 07:17:32;;;;;;;10.73;3.03;;;;;;;6.38;100.00;101801.38;5479554;26;20458;-68
2024/04/18 07:20:24;;;;;;;9.48;3.05;;;;;;;6.41;100.00;101805.53;5485089;26;20037;-68
2024/04/18 07:23:25;;;;;;;12.00;3.45;;;;;;;6.45;100.00;101806.78;5455940;26;20056;-68
2024/04/18 07:26:22;;;;;;;7.18;2.67;;;;;;;6.51;100.00;101805.06;5434148;26;20017;-67
2024/04/18 07:29:10;;;;;;;8.98;3.22;;;;;;;6.56;100.00;101807.94;5470567;25;20001;-69
2024/04/18 07:31:58;;;;;;;6.00;2.40;;;;;;;6.59;100.00;101808.38;5502905;26;20362;-70
2024/04/18 07:34:47;;;;;;;9.80;3.00;;;;;;;6.61;100.00;101810.84;5482585;26;20006;-69
2024/04/18 07:37:35;;;;;;;8.85;2.67;;;;;;;6.61;100.00;101810.84;5482502;26;20471;-69
2024/04/18 07:40:23;;;;;;;10.52;2.97;;;;;;;6.64;100.00;101805.00;5523575;25;20286;-69
2024/04/18 07:43:12;;;;;;;9.45;2.80;;;;;;;6.69;100.00;101809.78;5467257;26;20037;-69
2024/04/18 07:46:00;;;;;;;7.68;2.90;;;;;;;6.72;100.00;101812.84;5497550;26;20014;-69
2024/04/18 07:48:48;;;;;;;7.07;2.70;;;;;;;6.74;100.00;101805.34;5495759;26;20005;-70
2024/04/18 07:51:37;;;;;;;9.13;2.58;;;;;;;6.79;100.00;101818.25;5556715;25;20008;-69
2024/04/18 07:54:25;;;;;;;10.77;2.53;;;;;;;6.84;100.00;101815.72;5506358;25;20050;-70
2024/04/18 07:57:13;;;;;;;6.60;2.90;;;;;;;6.91;100.00;101823.78;5537792;25;20008;-69
2024/04/18 08:00:03;;;;;;;7.20;2.65;;;;;;;6.97;100.00;101825.59;5563393;25;20409;-71
2024/04/18 08:02:59;;;;;;;5.30;2.50;;;;;;;7.05;100.00;101828.06;5439301;26;20461;-71
2024/04/18 08:05:51;;;;;;;10.98;2.65;;;;;;;7.12;100.00;101836.97;5489675;26;19994;-71
2024/04/18 08:08:43;;;;;;;5.90;2.38;;;;;;;7.12;100.00;101823.44;5498245;26;20008;-69
2024/04/18 08:11:36;;;;;;;4.55;2.10;;;;;;;7.15;100.00;101838.41;5528624;25;20001;-70
2024/04/18 08:14:45;;;;;;;6.35;2.65;;;;;;;7.14;100.00;101845.69;5540271;25;19997;-70
2024/04/18 08:17:40;;;;;;;2.72;1.98;;;;;;;7.11;100.00;101853.44;5509564;25;20008;-70
2024/04/18 08:20:28;;;;;;;4.65;1.92;;;;;;;7.11;100.00;101840.72;5509572;25;20430;-70
2024/04/18 08:23:20;;;;;;;9.77;2.35;;;;;;;7.14;100.00;101847.59;5512947;25;20031;-70
2024/04/18 08:26:08;;;;;;;6.72;2.33;;;;;;;7.16;100.00;101857.16;5535444;25;20014;-70
2024/04/18 08:28:56;;;;;;;5.20;2.00;;;;;;;7.19;100.00;101856.75;5510208;25;19996;-69
2024/04/18 08:31:46;;;;;;;6.13;2.45;;;;;;;7.22;100.00;101867.13;5530403;25;20012;-69
2024/04/18 08:34:36;;;;;;;4.97;2.30;;;;;;;7.23;100.00;101863.34;5499003;26;20029;-69
2024/04/18 08:37:29;;;;;;;9.18;2.65;;;;;;;7.24;100.00;101867.75;5525020;26;20386;-68
2024/04/18 08:40:17;;;;;;;5.68;2.38;;;;;;;7.24;100.00;101864.22;5462648;25;20004;-71
2024/04/18 08:43:05;;;;;;;6.22;2.17;;;;;;;7.25;100.00;101858.56;5521237;25;20064;-71
2024/04/18 08:45:56;;;;;;;4.18;2.00;;;;;;;7.31;100.00;101866.84;5489130;25;20000;-71
2024/04/18 08:48:45;;;;;;;5.40;2.08;;;;;;;7.33;100.00;101862.88;5565478;25;19996;-70
2024/04/18 08:51:36;;;;;;;5.40;2.10;;;;;;;7.37;100.00;101868.69;5561238;25;20037;-70
2024/04/18 08:54:27;;;;;;;4.45;1.83;;;;;;;7.36;100.00;101873.28;5498321;25;20019;-70
2024/04/18 08:57:21;;;;;;;6.50;2.15;;;;;;;7.36;100.00;101877.84;5504526;25;20008;-69
2024/04/18 09:00:10;;;;;;;10.20;2.75;;;;;;;7.39;100.00;101880.16;5534710;25;20362;-70
2024/04/18 09:02:59;;;;;;;7.20;1.98;;;;;;;7.39;100.00;101875.56;5500588;26;20009;-70
2024/04/18 09:05:48;;;;;;;9.10;2.25;;;;;;;7.40;100.00;101884.50;5500318;26;20445;-69
2024/04/18 09:08:37;;;;;;;6.30;2.30;;;;;;;7.38;100.00;101881.19;5525446;25;20020;-70
2024/04/18 09:11:26;;;;;;;5.60;1.92;;;;;;;7.37;100.00;101879.53;5512268;25;19997;-70
2024/04/18 09:14:14;;;;;;;6.43;2.28;;;;;;;7.41;100.00;101880.75;5514549;25;20001;-70
2024/04/18 09:17:15;;;;;;;6.25;2.20;;;;;;;7.47;100.00;101888.00;5510985;25;20421;-70
2024/04/18 09:20:05;;;;;;;8.45;2.20;;;;;;;7.59;100.00;101894.34;5521739;26;20013;-70
2024/04/18 09:22:53;;;;;;;5.55;2.10;;;;;;;7.71;100.00;101890.94;5473918;26;20026;-70
2024/04/18 09:25:42;;;;;;;6.40;2.20;;;;;;;7.82;100.00;101892.94;5475608;26;20434;-70
2024/04/18 09:28:34;;;;;;;5.63;2.17;;;;;;;7.86;100.00;101894.97;5501701;26;20518;-69
2024/04/18 09:31:27;;;;;;;8.45;2.53;;;;;;;7.90;100.00;101895.34;5526658;26;20013;-69
2024/04/18 09:34:31;;;;;;;4.00;1.70;;;;;;;7.87;100.00;101896.63;5481707;26;19997;-69
2024/04/18 09:37:20;;;;;;;7.05;1.98;;;;;;;7.85;100.00;101897.91;5504331;26;19997;-70
2024/04/18 09:40:11;;;;;;;4.18;1.95;;;;;;;7.83;100.00;101905.44;5549213;25;20001;-70
2024/04/18 09:43:26;;;;;;;5.57;1.90;;;;;;;7.82;100.00;101901.06;5486003;25;19997;-70
2024/04/18 09:46:15;;;;;;;2.75;1.63;;;;;;;7.81;100.00;101899.38;5511060;25;20012;-70
2024/04/18 09:49:03;;;;;;;5.53;1.73;;;;;;;7.82;100.00;101920.06;5510422;25;20445;-71
2024/04/18 09:51:52;;;;;;;4.68;1.75;;;;;;;7.82;100.00;101903.78;5510761;25;20441;-70
2024/04/18 09:54:40;;;;;;;7.03;2.00;;;;;;;7.85;100.00;101914.19;5519293;25;19993;-69
2024/04/18 09:57:29;;;;;;;3.53;1.80;;;;;;;7.87;100.00;101902.03;5484577;25;20028;-71
2024/04/18 10:00:17;;;;;;;5.93;1.85;;;;;;;7.86;100.00;101900.41;5483812;25;20016;-69
2024/04/18 10:03:06;;;;;;;6.40;1.83;;;;;;;7.87;100.00;101906.66;5510584;25;20008;-70
2024/04/18 10:05:58;;;;;;;4.70;1.98;;;;;;;7.89;100.00;101901.84;5509491;25;19997;-69
2024/04/18 10:08:51;;;;;;;5.57;1.73;;;;;;;7.89;100.00;101901.84;5484597;25;20077;-69
2024/04/18 10:11:41;;;;;;;7.68;1.98;;;;;;;7.90;100.00;101900.78;5500807;25;19997;-70
2024/04/18 10:14:35;;;;;;;3.75;1.70;;;;;;;7.92;100.00;101901.38;5493348;25;20025;-71
2024/04/18 10:17:32;;;;;;;7.57;2.38;;;;;;;8.14;100.00;101898.25;5531453;26;20009;-72
2024/04/18 10:20:42;;;;;;;3.90;1.50;;;;;;;8.32;100.00;101906.38;5524821;26;20045;-70
2024/04/18 10:23:32;;;;;;;6.72;2.35;;;;;;;8.41;99.91;101902.34;5523619;25;20042;-71
2024/04/18 10:26:21;;;;;;;7.13;2.08;;;;;;;8.48;96.17;101903.09;5515452;26;20425;-71
2024/04/18 10:29:26;;;;;;;5.57;2.00;;;;;;;8.66;97.14;101893.25;5481645;25;20000;-71
2024/04/18 10:32:14;;;;;;;5.22;1.95;;;;;;;8.73;91.90;101899.44;5511509;25;20498;-71
2024/04/18 10:35:03;;;;;;;4.32;1.75;;;;;;;8.82;92.65;101900.78;5103938;25;9999891;-70
2024/04/18 10:37:51;;;;;;;5.78;2.08;;;;;;;8.91;92.09;101896.69;5509904;25;20015;-70
2024/04/18 10:41:00;;;;;;;6.55;2.30;;;;;;;8.93;89.29;101905.44;5548960;25;19992;-70
2024/04/18 10:43:48;;;;;;;5.35;1.75;;;;;;;8.91;87.88;101910.28;5521978;25;20004;-70
2024/04/18 10:46:36;;;;;;;4.43;1.80;;;;;;;8.91;86.29;101913.00;5522217;26;20012;-70
2024/04/18 10:49:25;;;;;;;7.07;2.05;;;;;;;8.91;87.10;101904.84;5496964;25;20001;-72
2024/04/18 10:52:17;;;;;;;3.47;1.80;;;;;;;8.92;89.26;101906.50;5523657;25;19993;-72
2024/04/18 10:55:06;;;;;;;5.25;2.05;;;;;;;8.97;89.26;101905.78;5465264;26;20005;-70
2024/04/18 10:57:55;;;;;;;5.22;2.22;;;;;;;9.02;89.95;101903.25;5534559;26;20001;-70
2024/04/18 11:00:43;;;;;;;4.38;1.80;;;;;;;9.02;91.82;101908.69;5495486;26;19994;-71
2024/04/18 11:03:33;;;;;;;3.55;1.90;;;;;;;9.00;92.25;101904.53;5524440;25;20008;-71
2024/04/18 11:06:21;;;;;;;8.65;2.40;;;;;;;9.04;92.75;101905.72;5520746;26;20012;-71
2024/04/18 11:09:09;;;;;;;5.15;2.10;;;;;;;9.13;95.16;101904.31;5545525;25;20003;-71
2024/04/18 11:11:58;;;;;;;9.13;2.42;;;;;;;9.16;95.01;101914.72;5541640;25;20000;-72
2024/04/18 11:14:47;;;;;;;6.75;2.30;;;;;;;9.15;93.16;101905.75;5510019;25;20002;-71
2024/04/18 11:17:38;;;;;;;3.22;2.00;;;;;;;9.16;86.54;101914.72;5573248;25;20135;-70
2024/04/18 11:20:26;;;;;;;4.65;1.65;;;;;;;9.16;83.31;101920.16;5529084;25;20000;-70
2024/04/18 11:23:17;;;;;;;6.70;2.25;;;;;;;9.09;84.04;101917.56;5502459;25;20011;-70
2024/04/18 11:26:11;;;;;;;4.57;2.10;;;;;;;9.06;87.11;101920.72;5522819;25;20004;-69
2024/04/18 11:28:59;;;;;;;5.05;2.33;;;;;;;9.05;89.22;101916.34;5540873;25;20004;-68
2024/04/18 11:31:47;;;;;;;5.45;2.20;;;;;;;9.04;89.58;101919.28;5508352;25;20342;-69
2024/04/18 11:34:38;;;;;;;3.97;2.08;;;;;;;9.03;90.48;101920.38;5538572;25;20005;-69
2024/04/18 11:37:37;;;;;;;4.43;2.30;;;;;;;9.01;87.42;101914.34;5467206;26;20012;-71
2024/04/18 11:40:27;;;;;;;7.63;2.20;;;;;;;9.00;81.60;101918.13;5476081;25;20049;-70
2024/04/18 11:43:15;;;;;;;6.00;2.00;;;;;;;8.99;78.87;101913.72;5532196;25;20100;-69
2024/04/18 11:46:03;;;;;;;5.22;2.00;;;;;;;9.02;80.74;101905.97;5503650;25;20400;-70
2024/04/18 11:48:51;;;;;;;2.50;2.03;;;;;;;9.14;82.34;101903.28;5531026;25;20064;-70
2024/04/18 11:51:40;;;;;;;6.57;2.20;;;;;;;9.25;82.06;101902.47;5536175;25;20000;-69
2024/04/18 11:54:28;;;;;;;5.25;2.47;;;;;;;9.36;82.35;101893.50;5499878;26;20004;-69
2024/04/18 11:57:16;;;;;;;5.78;2.45;;;;;;;9.43;81.84;101882.53;5476692;26;20073;-70
2024/04/18 12:00:05;;;;;;;5.43;2.35;;;;;;;9.48;82.52;101876.41;5500206;26;19998;-70
2024/04/18 12:03:11;;;;;;;7.90;2.72;;;;;;;9.49;83.36;101878.03;5485937;25;20019;-70
2024/04/18 12:06:15;;;;;;;7.35;2.60;;;;;;;9.49;84.95;101873.41;5487674;25;20068;-71
2024/04/18 12:09:10;;;;;;;5.55;2.40;;;;;;;9.49;83.86;101897.09;5546761;25;20013;-71
2024/04/18 12:12:00;;;;;;;6.68;2.42;;;;;;;9.42;82.91;101899.06;5506695;25;20001;-69
2024/04/18 12:15:02;;;;;;;9.43;2.58;;;;;;;9.35;81.85;101899.19;5496491;25;20009;-70
2024/04/18 12:17:51;;;;;;;6.28;2.20;;;;;;;9.36;83.32;101903.56;5509233;25;20001;-70
2024/04/18 12:20:42;;;;;;;6.20;2.70;;;;;;;9.34;82.68;101894.81;5490719;25;20013;-69
2024/04/18 12:23:32;;;;;;;7.43;2.10;;;;;;;9.36;85.24;101907.13;5488012;25;20012;-70
2024/04/18 12:26:26;;;;;;;8.50;2.50;;;;;;;9.42;81.14;101909.97;5529741;25;19997;-69
2024/04/18 12:29:14;;;;;;;7.40;2.03;;;;;;;9.47;78.23;101910.09;5511244;25;20000;-69
2024/04/18 12:32:19;;;;;;;6.50;2.30;;;;;;;9.54;77.53;101911.63;5537184;25;20015;-69
2024/04/18 12:35:08;;;;;;;8.50;2.70;;;;;;;9.57;79.43;101910.31;5495673;26;20005;-69
2024/04/18 12:37:57;;;;;;;6.55;2.78;;;;;;;9.52;81.26;101908.31;5571351;25;19996;-70
2024/04/18 12:40:45;;;;;;;8.07;2.60;;;;;;;9.53;78.68;101911.88;5519738;25;20507;-69
2024/04/18 12:43:33;;;;;;;6.47;2.50;;;;;;;9.56;80.74;101916.84;5511795;25;20324;-69
2024/04/18 12:46:21;;;;;;;9.82;2.60;;;;;;;9.65;80.60;101918.16;5513033;26;20001;-70
2024/04/18 12:49:11;;;;;;;7.00;2.63;;;;;;;9.68;76.38;101906.81;5565616;25;20073;-69
2024/04/18 12:51:59;;;;;;;5.28;2.33;;;;;;;9.73;76.16;101912.38;5521929;25;20000;-70
2024/04/18 12:54:48;;;;;;;7.80;2.15;;;;;;;9.83;74.58;101911.78;5547257;25;20025;-70
2024/04/18 12:57:42;;;;;;;6.82;2.03;;;;;;;9.91;74.27;101921.47;5482911;25;20444;-70
2024/04/18 13:00:50;;;;;;;6.50;2.25;;;;;;;9.96;77.31;101897.13;5520453;26;20004;-70
2024/04/18 13:03:58;;;;;;;9.10;2.42;;;;;;;10.00;78.86;101895.56;5499924;26;20009;-70
2024/04/18 13:07:05;;;;;;;7.15;2.20;;;;;;;10.03;79.14;101889.66;5504821;25;20523;-69
2024/04/18 13:09:54;;;;;;;5.10;2.13;;;;;;;10.13;79.90;101891.78;5536179;25;20001;-69
2024/04/18 13:12:43;;;;;;;8.27;2.90;;;;;;;10.23;78.60;101895.53;5511060;25;20001;-69
2024/04/18 13:15:50;;;;;;;8.13;2.28;;;;;;;10.22;75.97;101896.63;5554361;25;20416;-70
2024/04/18 13:18:42;;;;;;;5.72;1.85;;;;;;;10.13;73.88;101878.16;5512400;26;20073;-70
2024/04/18 13:21:50;;;;;;;5.63;2.28;;;;;;;10.05;73.98;101887.50;5502760;26;20029;-69
2024/04/18 13:24:38;;;;;;;8.02;2.28;;;;;;;10.01;74.77;101889.06;5534867;25;20005;-69
2024/04/18 13:27:44;;;;;;;5.03;2.00;;;;;;;9.96;73.34;101881.59;5525265;26;20008;-70